sensor_id;sensor_type;location;lat;lon;timestamp;P1;durP1;ratioP1;P2;durP2;ratioP2
70073;SDS011;57445;51.058;3.698;2022-09-17T00:00:22;7.28;;;1.70;;
70073;SDS011;57445;51.058;3.698;2022-09-17T00:02:55;8.40;;;1.70;;
70073;SDS011;57445;51.058;3.698;2022-09-17T00:05:23;7.63;;;1.65;;
70073;SDS011;57445;51.058;3.698;2022-09-17T00:07:55;8.32;;;1.60;;
70073;SDS011;57445;51.058;3.698;2022-09-17T00:10:28;9.07;;;1.67;;
70073;SDS011;57445;51.058;3.698;2022-09-17T00:12:56;13.73;;;2.08;;
70073;SDS011;57445;51.058;3.698;2022-09-17T00:15:28;7.70;;;1.58;;
70073;SDS011;57445;51.058;3.698;2022-09-17T00:18:02;10.93;;;2.10;;
70073;SDS011;57445;51.058;3.698;2022-09-17T00:20:36;8.45;;;1.67;;
70073;SDS011;57445;51.058;3.698;2022-09-17T00:23:10;8.48;;;1.75;;
70073;SDS011;57445;51.058;3.698;2022-09-17T00:25:43;9.38;;;1.80;;
70073;SDS011;57445;51.058;3.698;2022-09-17T00:28:12;9.75;;;2.25;;
70073;SDS011;57445;51.058;3.698;2022-09-17T00:30:45;10.13;;;2.25;;
70073;SDS011;57445;51.058;3.698;2022-09-17T00:33:18;13.07;;;2.00;;
70073;SDS011;57445;51.058;3.698;2022-09-17T00:35:55;6.80;;;1.92;;
70073;SDS011;57445;51.058;3.698;2022-09-17T00:40:51;6.10;;;1.43;;
70073;SDS011;57445;51.058;3.698;2022-09-17T00:46:15;13.15;;;2.28;;
70073;SDS011;57445;51.058;3.698;2022-09-17T00:48:56;11.43;;;2.45;;
70073;SDS011;57445;51.058;3.698;2022-09-17T00:51:27;11.27;;;2.13;;
70073;SDS011;57445;51.058;3.698;2022-09-17T00:54:00;15.98;;;2.83;;
70073;SDS011;57445;51.058;3.698;2022-09-17T00:56:30;13.60;;;2.30;;
70073;SDS011;57445;51.058;3.698;2022-09-17T00:59:05;11.75;;;2.17;;
70073;SDS011;57445;51.058;3.698;2022-09-17T01:01:37;11.95;;;2.50;;
70073;SDS011;57445;51.058;3.698;2022-09-17T01:04:09;11.07;;;2.85;;
70073;SDS011;57445;51.058;3.698;2022-09-17T01:06:43;10.98;;;2.40;;
70073;SDS011;57445;51.058;3.698;2022-09-17T01:09:21;12.43;;;2.17;;
70073;SDS011;57445;51.058;3.698;2022-09-17T01:12:15;12.80;;;2.85;;
70073;SDS011;57445;51.058;3.698;2022-09-17T01:14:58;12.93;;;2.25;;
70073;SDS011;57445;51.058;3.698;2022-09-17T01:17:40;14.85;;;2.50;;
70073;SDS011;57445;51.058;3.698;2022-09-17T01:23:25;12.30;;;2.60;;
70073;SDS011;57445;51.058;3.698;2022-09-17T01:26:19;19.33;;;3.15;;
70073;SDS011;57445;51.058;3.698;2022-09-17T01:29:06;16.10;;;3.03;;
70073;SDS011;57445;51.058;3.698;2022-09-17T01:31:56;14.05;;;2.85;;
70073;SDS011;57445;51.058;3.698;2022-09-17T01:34:35;12.65;;;3.67;;
70073;SDS011;57445;51.058;3.698;2022-09-17T01:37:14;15.48;;;3.05;;
70073;SDS011;57445;51.058;3.698;2022-09-17T01:39:47;14.90;;;3.45;;
70073;SDS011;57445;51.058;3.698;2022-09-17T01:42:24;16.55;;;3.33;;
70073;SDS011;57445;51.058;3.698;2022-09-17T01:44:58;16.25;;;3.05;;
70073;SDS011;57445;51.058;3.698;2022-09-17T01:47:31;15.32;;;3.28;;
70073;SDS011;57445;51.058;3.698;2022-09-17T01:50:06;15.30;;;3.55;;
70073;SDS011;57445;51.058;3.698;2022-09-17T01:52:43;14.85;;;3.22;;
70073;SDS011;57445;51.058;3.698;2022-09-17T01:55:14;14.00;;;3.00;;
70073;SDS011;57445;51.058;3.698;2022-09-17T01:57:49;13.35;;;2.72;;
70073;SDS011;57445;51.058;3.698;2022-09-17T02:00:20;16.13;;;3.08;;
70073;SDS011;57445;51.058;3.698;2022-09-17T02:02:56;13.73;;;3.45;;
70073;SDS011;57445;51.058;3.698;2022-09-17T02:05:29;15.48;;;3.20;;
70073;SDS011;57445;51.058;3.698;2022-09-17T02:08:02;14.55;;;2.92;;
70073;SDS011;57445;51.058;3.698;2022-09-17T02:10:35;14.85;;;3.15;;
70073;SDS011;57445;51.058;3.698;2022-09-17T02:13:12;13.63;;;3.00;;
70073;SDS011;57445;51.058;3.698;2022-09-17T02:15:49;15.45;;;2.97;;
70073;SDS011;57445;51.058;3.698;2022-09-17T02:18:23;16.38;;;3.25;;
70073;SDS011;57445;51.058;3.698;2022-09-17T02:21:01;13.10;;;3.00;;
70073;SDS011;57445;51.058;3.698;2022-09-17T02:23:40;11.43;;;2.97;;
70073;SDS011;57445;51.058;3.698;2022-09-17T02:26:18;18.95;;;3.15;;
70073;SDS011;57445;51.058;3.698;2022-09-17T02:28:52;12.50;;;3.05;;
70073;SDS011;57445;51.058;3.698;2022-09-17T02:31:29;19.40;;;3.20;;
70073;SDS011;57445;51.058;3.698;2022-09-17T02:34:03;17.50;;;3.55;;
70073;SDS011;57445;51.058;3.698;2022-09-17T02:36:37;12.80;;;2.95;;
70073;SDS011;57445;51.058;3.698;2022-09-17T02:39:09;13.07;;;2.88;;
70073;SDS011;57445;51.058;3.698;2022-09-17T02:41:43;14.20;;;2.88;;
70073;SDS011;57445;51.058;3.698;2022-09-17T02:44:24;16.15;;;3.03;;
70073;SDS011;57445;51.058;3.698;2022-09-17T02:50:13;17.35;;;2.83;;
70073;SDS011;57445;51.058;3.698;2022-09-17T02:52:59;19.48;;;3.20;;
70073;SDS011;57445;51.058;3.698;2022-09-17T02:55:42;12.95;;;2.80;;
70073;SDS011;57445;51.058;3.698;2022-09-17T02:58:21;16.23;;;3.20;;
70073;SDS011;57445;51.058;3.698;2022-09-17T03:00:52;13.00;;;2.80;;
70073;SDS011;57445;51.058;3.698;2022-09-17T03:03:25;18.02;;;3.70;;
70073;SDS011;57445;51.058;3.698;2022-09-17T03:05:59;18.70;;;3.13;;
70073;SDS011;57445;51.058;3.698;2022-09-17T03:08:27;12.43;;;3.00;;
70073;SDS011;57445;51.058;3.698;2022-09-17T03:10:56;13.55;;;3.05;;
70073;SDS011;57445;51.058;3.698;2022-09-17T03:13:28;15.07;;;3.30;;
70073;SDS011;57445;51.058;3.698;2022-09-17T03:15:56;14.48;;;2.63;;
70073;SDS011;57445;51.058;3.698;2022-09-17T03:18:28;9.15;;;2.67;;
70073;SDS011;57445;51.058;3.698;2022-09-17T03:21:02;13.18;;;2.45;;
70073;SDS011;57445;51.058;3.698;2022-09-17T03:23:34;16.77;;;2.65;;
70073;SDS011;57445;51.058;3.698;2022-09-17T03:26:06;13.05;;;2.63;;
70073;SDS011;57445;51.058;3.698;2022-09-17T03:28:34;16.33;;;2.90;;
70073;SDS011;57445;51.058;3.698;2022-09-17T03:31:06;10.25;;;2.53;;
70073;SDS011;57445;51.058;3.698;2022-09-17T03:33:38;16.02;;;5.53;;
70073;SDS011;57445;51.058;3.698;2022-09-17T03:36:12;13.48;;;2.42;;
70073;SDS011;57445;51.058;3.698;2022-09-17T03:38:44;14.70;;;2.60;;
70073;SDS011;57445;51.058;3.698;2022-09-17T03:41:11;12.68;;;2.63;;
70073;SDS011;57445;51.058;3.698;2022-09-17T03:43:43;12.60;;;2.22;;
70073;SDS011;57445;51.058;3.698;2022-09-17T03:46:11;11.63;;;2.90;;
70073;SDS011;57445;51.058;3.698;2022-09-17T03:48:39;12.80;;;2.15;;
70073;SDS011;57445;51.058;3.698;2022-09-17T03:51:06;16.30;;;3.13;;
70073;SDS011;57445;51.058;3.698;2022-09-17T03:53:40;9.90;;;2.30;;
70073;SDS011;57445;51.058;3.698;2022-09-17T03:56:12;11.95;;;2.90;;
70073;SDS011;57445;51.058;3.698;2022-09-17T03:58:44;8.73;;;2.28;;
70073;SDS011;57445;51.058;3.698;2022-09-17T04:01:16;9.90;;;2.20;;
70073;SDS011;57445;51.058;3.698;2022-09-17T04:03:44;13.43;;;2.65;;
70073;SDS011;57445;51.058;3.698;2022-09-17T04:06:16;14.80;;;2.90;;
70073;SDS011;57445;51.058;3.698;2022-09-17T04:08:45;7.55;;;2.40;;
70073;SDS011;57445;51.058;3.698;2022-09-17T04:11:12;11.05;;;2.40;;
70073;SDS011;57445;51.058;3.698;2022-09-17T04:13:40;9.60;;;2.38;;
70073;SDS011;57445;51.058;3.698;2022-09-17T04:16:12;12.35;;;2.10;;
70073;SDS011;57445;51.058;3.698;2022-09-17T04:18:44;13.00;;;2.15;;
70073;SDS011;57445;51.058;3.698;2022-09-17T04:21:12;8.75;;;2.17;;
70073;SDS011;57445;51.058;3.698;2022-09-17T04:23:45;8.75;;;1.98;;
70073;SDS011;57445;51.058;3.698;2022-09-17T04:26:17;8.93;;;1.92;;
70073;SDS011;57445;51.058;3.698;2022-09-17T04:28:49;9.80;;;2.10;;
70073;SDS011;57445;51.058;3.698;2022-09-17T04:31:17;10.48;;;2.10;;
70073;SDS011;57445;51.058;3.698;2022-09-17T04:33:49;10.07;;;2.40;;
70073;SDS011;57445;51.058;3.698;2022-09-17T04:36:17;9.55;;;2.10;;
70073;SDS011;57445;51.058;3.698;2022-09-17T04:38:50;9.52;;;2.42;;
70073;SDS011;57445;51.058;3.698;2022-09-17T04:41:22;9.18;;;2.28;;
70073;SDS011;57445;51.058;3.698;2022-09-17T04:43:50;10.02;;;2.38;;
70073;SDS011;57445;51.058;3.698;2022-09-17T04:46:18;10.85;;;2.50;;
70073;SDS011;57445;51.058;3.698;2022-09-17T04:48:45;14.05;;;2.90;;
70073;SDS011;57445;51.058;3.698;2022-09-17T04:51:17;11.68;;;2.55;;
70073;SDS011;57445;51.058;3.698;2022-09-17T04:53:45;13.55;;;2.40;;
70073;SDS011;57445;51.058;3.698;2022-09-17T04:56:18;12.77;;;3.40;;
70073;SDS011;57445;51.058;3.698;2022-09-17T04:58:50;9.88;;;2.38;;
70073;SDS011;57445;51.058;3.698;2022-09-17T05:01:23;11.70;;;2.55;;
70073;SDS011;57445;51.058;3.698;2022-09-17T05:03:50;10.18;;;2.40;;
70073;SDS011;57445;51.058;3.698;2022-09-17T05:06:18;11.68;;;2.58;;
70073;SDS011;57445;51.058;3.698;2022-09-17T05:08:50;8.30;;;2.25;;
70073;SDS011;57445;51.058;3.698;2022-09-17T05:11:19;10.20;;;2.83;;
70073;SDS011;57445;51.058;3.698;2022-09-17T05:13:46;9.32;;;2.22;;
70073;SDS011;57445;51.058;3.698;2022-09-17T05:16:19;11.35;;;2.30;;
70073;SDS011;57445;51.058;3.698;2022-09-17T05:18:51;7.45;;;2.05;;
70073;SDS011;57445;51.058;3.698;2022-09-17T05:21:19;8.82;;;2.13;;
70073;SDS011;57445;51.058;3.698;2022-09-17T05:23:47;11.43;;;2.22;;
70073;SDS011;57445;51.058;3.698;2022-09-17T05:26:20;9.43;;;2.13;;
70073;SDS011;57445;51.058;3.698;2022-09-17T05:28:48;9.95;;;2.30;;
70073;SDS011;57445;51.058;3.698;2022-09-17T05:31:15;10.50;;;2.03;;
70073;SDS011;57445;51.058;3.698;2022-09-17T05:33:47;7.63;;;1.77;;
70073;SDS011;57445;51.058;3.698;2022-09-17T05:36:15;11.52;;;1.90;;
70073;SDS011;57445;51.058;3.698;2022-09-17T05:38:43;12.25;;;2.15;;
70073;SDS011;57445;51.058;3.698;2022-09-17T05:41:10;8.63;;;1.88;;
70073;SDS011;57445;51.058;3.698;2022-09-17T05:43:41;9.48;;;1.73;;
70073;SDS011;57445;51.058;3.698;2022-09-17T05:46:14;8.02;;;1.70;;
70073;SDS011;57445;51.058;3.698;2022-09-17T05:48:41;7.20;;;1.50;;
70073;SDS011;57445;51.058;3.698;2022-09-17T05:51:09;4.90;;;1.20;;
70073;SDS011;57445;51.058;3.698;2022-09-17T05:53:37;7.85;;;1.50;;
70073;SDS011;57445;51.058;3.698;2022-09-17T05:56:09;5.78;;;1.48;;
70073;SDS011;57445;51.058;3.698;2022-09-17T05:58:37;4.88;;;1.40;;
70073;SDS011;57445;51.058;3.698;2022-09-17T06:01:10;4.45;;;1.50;;
70073;SDS011;57445;51.058;3.698;2022-09-17T06:03:41;7.25;;;1.65;;
70073;SDS011;57445;51.058;3.698;2022-09-17T06:06:13;8.60;;;2.20;;
70073;SDS011;57445;51.058;3.698;2022-09-17T06:08:41;5.13;;;1.33;;
70073;SDS011;57445;51.058;3.698;2022-09-17T06:11:08;6.32;;;1.58;;
70073;SDS011;57445;51.058;3.698;2022-09-17T06:13:36;7.82;;;1.80;;
70073;SDS011;57445;51.058;3.698;2022-09-17T06:16:08;6.65;;;1.63;;
70073;SDS011;57445;51.058;3.698;2022-09-17T06:18:37;9.75;;;1.65;;
70073;SDS011;57445;51.058;3.698;2022-09-17T06:21:09;4.90;;;1.40;;
70073;SDS011;57445;51.058;3.698;2022-09-17T06:23:41;6.15;;;1.70;;
70073;SDS011;57445;51.058;3.698;2022-09-17T06:26:14;7.00;;;1.70;;
70073;SDS011;57445;51.058;3.698;2022-09-17T06:28:42;8.93;;;1.83;;
70073;SDS011;57445;51.058;3.698;2022-09-17T06:31:11;10.75;;;1.70;;
70073;SDS011;57445;51.058;3.698;2022-09-17T06:33:39;8.55;;;1.70;;
70073;SDS011;57445;51.058;3.698;2022-09-17T06:36:11;6.13;;;1.70;;
70073;SDS011;57445;51.058;3.698;2022-09-17T06:38:43;13.38;;;1.95;;
70073;SDS011;57445;51.058;3.698;2022-09-17T06:41:16;9.95;;;2.33;;
70073;SDS011;57445;51.058;3.698;2022-09-17T06:43:43;10.25;;;2.08;;
70073;SDS011;57445;51.058;3.698;2022-09-17T06:46:12;9.45;;;2.10;;
70073;SDS011;57445;51.058;3.698;2022-09-17T06:48:44;11.80;;;1.92;;
70073;SDS011;57445;51.058;3.698;2022-09-17T06:51:12;10.65;;;2.58;;
70073;SDS011;57445;51.058;3.698;2022-09-17T06:53:45;10.98;;;2.35;;
70073;SDS011;57445;51.058;3.698;2022-09-17T06:56:13;10.68;;;1.95;;
70073;SDS011;57445;51.058;3.698;2022-09-17T06:58:45;8.95;;;1.83;;
70073;SDS011;57445;51.058;3.698;2022-09-17T07:01:19;9.60;;;1.95;;
70073;SDS011;57445;51.058;3.698;2022-09-17T07:03:51;6.93;;;1.75;;
70073;SDS011;57445;51.058;3.698;2022-09-17T07:06:19;6.80;;;1.60;;
70073;SDS011;57445;51.058;3.698;2022-09-17T07:08:51;8.77;;;1.60;;
70073;SDS011;57445;51.058;3.698;2022-09-17T07:11:23;6.07;;;1.42;;
70073;SDS011;57445;51.058;3.698;2022-09-17T07:13:56;8.25;;;1.50;;
70073;SDS011;57445;51.058;3.698;2022-09-17T07:16:25;5.88;;;1.10;;
70073;SDS011;57445;51.058;3.698;2022-09-17T07:18:57;3.97;;;0.82;;
70073;SDS011;57445;51.058;3.698;2022-09-17T07:21:25;5.18;;;1.23;;
70073;SDS011;57445;51.058;3.698;2022-09-17T07:23:57;3.78;;;1.17;;
70073;SDS011;57445;51.058;3.698;2022-09-17T07:26:29;5.85;;;1.40;;
70073;SDS011;57445;51.058;3.698;2022-09-17T07:29:01;5.88;;;1.42;;
70073;SDS011;57445;51.058;3.698;2022-09-17T07:31:30;7.00;;;1.30;;
70073;SDS011;57445;51.058;3.698;2022-09-17T07:33:57;4.55;;;1.13;;
70073;SDS011;57445;51.058;3.698;2022-09-17T07:36:31;5.20;;;1.50;;
70073;SDS011;57445;51.058;3.698;2022-09-17T07:38:58;5.90;;;1.80;;
70073;SDS011;57445;51.058;3.698;2022-09-17T07:41:30;8.10;;;1.42;;
70073;SDS011;57445;51.058;3.698;2022-09-17T07:43:59;5.00;;;1.40;;
70073;SDS011;57445;51.058;3.698;2022-09-17T07:46:27;7.05;;;1.38;;
70073;SDS011;57445;51.058;3.698;2022-09-17T07:48:56;5.38;;;1.70;;
70073;SDS011;57445;51.058;3.698;2022-09-17T07:51:28;6.53;;;2.13;;
70073;SDS011;57445;51.058;3.698;2022-09-17T07:54:01;6.47;;;1.60;;
70073;SDS011;57445;51.058;3.698;2022-09-17T07:56:33;6.03;;;1.20;;
70073;SDS011;57445;51.058;3.698;2022-09-17T07:59:01;6.00;;;1.38;;
70073;SDS011;57445;51.058;3.698;2022-09-17T08:01:33;8.48;;;1.60;;
70073;SDS011;57445;51.058;3.698;2022-09-17T08:04:03;9.00;;;1.55;;
70073;SDS011;57445;51.058;3.698;2022-09-17T08:06:34;7.55;;;1.50;;
70073;SDS011;57445;51.058;3.698;2022-09-17T08:09:03;5.03;;;1.20;;
70073;SDS011;57445;51.058;3.698;2022-09-17T08:11:31;7.38;;;1.70;;
70073;SDS011;57445;51.058;3.698;2022-09-17T08:13:58;5.65;;;1.48;;
70073;SDS011;57445;51.058;3.698;2022-09-17T08:16:31;8.32;;;1.92;;
70073;SDS011;57445;51.058;3.698;2022-09-17T08:18:58;9.95;;;1.88;;
70073;SDS011;57445;51.058;3.698;2022-09-17T08:21:32;6.20;;;1.50;;
70073;SDS011;57445;51.058;3.698;2022-09-17T08:24:00;6.53;;;1.27;;
70073;SDS011;57445;51.058;3.698;2022-09-17T08:26:28;6.18;;;1.30;;
70073;SDS011;57445;51.058;3.698;2022-09-17T08:28:56;4.78;;;1.30;;
70073;SDS011;57445;51.058;3.698;2022-09-17T08:31:24;5.70;;;1.30;;
70073;SDS011;57445;51.058;3.698;2022-09-17T08:33:54;5.63;;;1.60;;
70073;SDS011;57445;51.058;3.698;2022-09-17T08:36:22;5.22;;;1.45;;
70073;SDS011;57445;51.058;3.698;2022-09-17T08:38:52;6.10;;;1.45;;
70073;SDS011;57445;51.058;3.698;2022-09-17T08:41:27;6.03;;;1.35;;
70073;SDS011;57445;51.058;3.698;2022-09-17T08:44:12;5.47;;;1.45;;
70073;SDS011;57445;51.058;3.698;2022-09-17T08:46:52;7.32;;;1.60;;
70073;SDS011;57445;51.058;3.698;2022-09-17T08:49:28;4.22;;;1.25;;
70073;SDS011;57445;51.058;3.698;2022-09-17T08:52:12;4.88;;;1.20;;
70073;SDS011;57445;51.058;3.698;2022-09-17T08:54:55;6.82;;;1.48;;
70073;SDS011;57445;51.058;3.698;2022-09-17T08:57:36;7.63;;;1.40;;
70073;SDS011;57445;51.058;3.698;2022-09-17T09:00:15;5.22;;;1.20;;
70073;SDS011;57445;51.058;3.698;2022-09-17T09:02:55;6.20;;;1.65;;
70073;SDS011;57445;51.058;3.698;2022-09-17T09:05:35;6.38;;;1.80;;
70073;SDS011;57445;51.058;3.698;2022-09-17T09:08:11;3.78;;;1.42;;
70073;SDS011;57445;51.058;3.698;2022-09-17T09:10:49;4.35;;;1.70;;
70073;SDS011;57445;51.058;3.698;2022-09-17T09:13:25;5.13;;;1.50;;
70073;SDS011;57445;51.058;3.698;2022-09-17T09:15:59;3.90;;;1.40;;
70073;SDS011;57445;51.058;3.698;2022-09-17T09:18:36;6.40;;;2.30;;
70073;SDS011;57445;51.058;3.698;2022-09-17T09:21:15;5.95;;;1.50;;
70073;SDS011;57445;51.058;3.698;2022-09-17T09:23:52;6.25;;;2.30;;
70073;SDS011;57445;51.058;3.698;2022-09-17T09:26:35;6.47;;;1.55;;
70073;SDS011;57445;51.058;3.698;2022-09-17T09:29:16;7.35;;;1.58;;
70073;SDS011;57445;51.058;3.698;2022-09-17T09:32:00;4.88;;;1.20;;
70073;SDS011;57445;51.058;3.698;2022-09-17T09:34:39;8.02;;;1.60;;
70073;SDS011;57445;51.058;3.698;2022-09-17T09:37:13;5.22;;;1.20;;
70073;SDS011;57445;51.058;3.698;2022-09-17T09:39:44;6.40;;;1.70;;
70073;SDS011;57445;51.058;3.698;2022-09-17T09:42:22;4.88;;;1.58;;
70073;SDS011;57445;51.058;3.698;2022-09-17T09:44:56;5.32;;;1.67;;
70073;SDS011;57445;51.058;3.698;2022-09-17T09:47:32;3.72;;;1.40;;
70073;SDS011;57445;51.058;3.698;2022-09-17T09:50:19;5.30;;;1.50;;
70073;SDS011;57445;51.058;3.698;2022-09-17T09:53:03;7.70;;;2.08;;
70073;SDS011;57445;51.058;3.698;2022-09-17T09:55:45;6.55;;;1.85;;
70073;SDS011;57445;51.058;3.698;2022-09-17T09:58:35;6.15;;;1.98;;
70073;SDS011;57445;51.058;3.698;2022-09-17T10:01:07;9.57;;;1.80;;
70073;SDS011;57445;51.058;3.698;2022-09-17T10:03:44;8.52;;;1.83;;
70073;SDS011;57445;51.058;3.698;2022-09-17T10:06:16;8.15;;;2.03;;
70073;SDS011;57445;51.058;3.698;2022-09-17T10:11:38;6.65;;;1.63;;
70073;SDS011;57445;51.058;3.698;2022-09-17T10:14:18;8.20;;;1.75;;
70073;SDS011;57445;51.058;3.698;2022-09-17T10:16:54;5.82;;;1.58;;
70073;SDS011;57445;51.058;3.698;2022-09-17T10:19:42;6.00;;;1.80;;
70073;SDS011;57445;51.058;3.698;2022-09-17T10:22:21;7.38;;;1.75;;
70073;SDS011;57445;51.058;3.698;2022-09-17T10:24:52;8.52;;;2.40;;
70073;SDS011;57445;51.058;3.698;2022-09-17T10:27:21;6.43;;;1.98;;
70073;SDS011;57445;51.058;3.698;2022-09-17T10:29:53;7.50;;;2.00;;
70073;SDS011;57445;51.058;3.698;2022-09-17T10:32:32;5.72;;;1.90;;
70073;SDS011;57445;51.058;3.698;2022-09-17T10:35:05;10.30;;;2.20;;
70073;SDS011;57445;51.058;3.698;2022-09-17T10:37:55;10.43;;;2.55;;
70073;SDS011;57445;51.058;3.698;2022-09-17T10:40:28;10.80;;;2.20;;
70073;SDS011;57445;51.058;3.698;2022-09-17T10:43:17;6.43;;;1.83;;
70073;SDS011;57445;51.058;3.698;2022-09-17T10:45:57;5.13;;;1.42;;
70073;SDS011;57445;51.058;3.698;2022-09-17T10:48:32;6.15;;;1.85;;
70073;SDS011;57445;51.058;3.698;2022-09-17T10:51:09;8.45;;;1.60;;
70073;SDS011;57445;51.058;3.698;2022-09-17T10:53:56;5.43;;;1.52;;
70073;SDS011;57445;51.058;3.698;2022-09-17T10:56:36;8.52;;;2.03;;
70073;SDS011;57445;51.058;3.698;2022-09-17T10:59:16;6.47;;;1.50;;
70073;SDS011;57445;51.058;3.698;2022-09-17T11:02:08;7.68;;;1.63;;
70073;SDS011;57445;51.058;3.698;2022-09-17T11:04:56;10.07;;;1.83;;
70073;SDS011;57445;51.058;3.698;2022-09-17T11:07:31;8.40;;;2.00;;
70073;SDS011;57445;51.058;3.698;2022-09-17T11:10:07;7.72;;;1.90;;
70073;SDS011;57445;51.058;3.698;2022-09-17T11:12:48;8.98;;;1.80;;
70073;SDS011;57445;51.058;3.698;2022-09-17T11:15:27;10.27;;;2.47;;
70073;SDS011;57445;51.058;3.698;2022-09-17T11:18:18;10.23;;;2.50;;
70073;SDS011;57445;51.058;3.698;2022-09-17T11:21:04;11.68;;;2.50;;
70073;SDS011;57445;51.058;3.698;2022-09-17T11:23:49;15.73;;;2.55;;
70073;SDS011;57445;51.058;3.698;2022-09-17T11:26:43;12.18;;;2.53;;
70073;SDS011;57445;51.058;3.698;2022-09-17T11:29:23;14.07;;;2.65;;
70073;SDS011;57445;51.058;3.698;2022-09-17T11:32:03;10.32;;;2.70;;
70073;SDS011;57445;51.058;3.698;2022-09-17T11:34:43;15.10;;;3.05;;
70073;SDS011;57445;51.058;3.698;2022-09-17T11:37:15;16.35;;;2.55;;
70073;SDS011;57445;51.058;3.698;2022-09-17T11:42:27;13.63;;;3.05;;
70073;SDS011;57445;51.058;3.698;2022-09-17T11:45:03;10.90;;;2.28;;
70073;SDS011;57445;51.058;3.698;2022-09-17T11:47:43;10.85;;;2.70;;
70073;SDS011;57445;51.058;3.698;2022-09-17T11:50:21;9.20;;;2.20;;
70073;SDS011;57445;51.058;3.698;2022-09-17T11:52:57;10.40;;;2.65;;
70073;SDS011;57445;51.058;3.698;2022-09-17T11:55:31;12.18;;;2.85;;
70073;SDS011;57445;51.058;3.698;2022-09-17T11:58:12;12.98;;;2.33;;
70073;SDS011;57445;51.058;3.698;2022-09-17T12:00:45;8.23;;;2.30;;
70073;SDS011;57445;51.058;3.698;2022-09-17T12:03:23;10.57;;;2.42;;
70073;SDS011;57445;51.058;3.698;2022-09-17T12:06:05;8.57;;;2.17;;
70073;SDS011;57445;51.058;3.698;2022-09-17T12:08:41;6.57;;;1.80;;
70073;SDS011;57445;51.058;3.698;2022-09-17T12:11:19;10.48;;;2.10;;
70073;SDS011;57445;51.058;3.698;2022-09-17T12:13:49;8.35;;;2.17;;
70073;SDS011;57445;51.058;3.698;2022-09-17T12:16:25;12.65;;;2.53;;
70073;SDS011;57445;51.058;3.698;2022-09-17T12:18:57;8.65;;;2.45;;
70073;SDS011;57445;51.058;3.698;2022-09-17T12:21:32;8.88;;;2.47;;
70073;SDS011;57445;51.058;3.698;2022-09-17T12:24:06;10.30;;;2.28;;
70073;SDS011;57445;51.058;3.698;2022-09-17T12:29:46;9.45;;;2.35;;
70073;SDS011;57445;51.058;3.698;2022-09-17T12:32:36;9.75;;;2.38;;
70073;SDS011;57445;51.058;3.698;2022-09-17T12:35:38;8.90;;;2.20;;
70073;SDS011;57445;51.058;3.698;2022-09-17T12:38:21;8.48;;;2.30;;
70073;SDS011;57445;51.058;3.698;2022-09-17T12:41:07;7.65;;;2.10;;
70073;SDS011;57445;51.058;3.698;2022-09-17T12:43:51;11.23;;;2.10;;
70073;SDS011;57445;51.058;3.698;2022-09-17T12:46:37;12.52;;;2.30;;
70073;SDS011;57445;51.058;3.698;2022-09-17T12:49:26;9.63;;;1.80;;
70073;SDS011;57445;51.058;3.698;2022-09-17T12:52:24;7.72;;;2.08;;
70073;SDS011;57445;51.058;3.698;2022-09-17T12:55:16;9.00;;;1.95;;
70073;SDS011;57445;51.058;3.698;2022-09-17T12:57:54;10.23;;;1.92;;
70073;SDS011;57445;51.058;3.698;2022-09-17T13:00:35;9.38;;;1.70;;
70073;SDS011;57445;51.058;3.698;2022-09-17T13:03:10;8.65;;;1.70;;
70073;SDS011;57445;51.058;3.698;2022-09-17T13:05:56;9.70;;;1.88;;
70073;SDS011;57445;51.058;3.698;2022-09-17T13:08:54;6.50;;;1.60;;
70073;SDS011;57445;51.058;3.698;2022-09-17T13:11:57;7.85;;;1.60;;
70073;SDS011;57445;51.058;3.698;2022-09-17T13:17:53;6.30;;;1.40;;
70073;SDS011;57445;51.058;3.698;2022-09-17T13:20:30;7.88;;;1.63;;
70073;SDS011;57445;51.058;3.698;2022-09-17T13:23:05;6.72;;;1.50;;
70073;SDS011;57445;51.058;3.698;2022-09-17T13:25:48;7.47;;;1.58;;
70073;SDS011;57445;51.058;3.698;2022-09-17T13:28:19;5.30;;;1.50;;
70073;SDS011;57445;51.058;3.698;2022-09-17T13:30:55;5.63;;;1.50;;
70073;SDS011;57445;51.058;3.698;2022-09-17T13:36:35;8.63;;;1.80;;
70073;SDS011;57445;51.058;3.698;2022-09-17T13:42:21;8.20;;;1.98;;
70073;SDS011;57445;51.058;3.698;2022-09-17T13:45:03;6.65;;;1.58;;
70073;SDS011;57445;51.058;3.698;2022-09-17T13:47:38;6.97;;;1.73;;
70073;SDS011;57445;51.058;3.698;2022-09-17T13:50:23;5.47;;;1.80;;
70073;SDS011;57445;51.058;3.698;2022-09-17T13:52:57;8.75;;;1.80;;
70073;SDS011;57445;51.058;3.698;2022-09-17T13:55:30;6.80;;;1.80;;
70073;SDS011;57445;51.058;3.698;2022-09-17T13:58:05;8.50;;;2.10;;
70073;SDS011;57445;51.058;3.698;2022-09-17T14:00:48;8.68;;;2.50;;
70073;SDS011;57445;51.058;3.698;2022-09-17T14:03:52;7.65;;;1.77;;
70073;SDS011;57445;51.058;3.698;2022-09-17T14:09:28;5.18;;;0.93;;
70073;SDS011;57445;51.058;3.698;2022-09-17T14:11:58;3.67;;;1.20;;
70073;SDS011;57445;51.058;3.698;2022-09-17T14:14:45;4.18;;;1.05;;
70073;SDS011;57445;51.058;3.698;2022-09-17T14:20:22;7.82;;;1.73;;
70073;SDS011;57445;51.058;3.698;2022-09-17T14:22:55;5.10;;;1.38;;
70073;SDS011;57445;51.058;3.698;2022-09-17T14:25:25;5.10;;;1.45;;
70073;SDS011;57445;51.058;3.698;2022-09-17T14:28:06;8.57;;;1.60;;
70073;SDS011;57445;51.058;3.698;2022-09-17T14:30:44;5.80;;;1.38;;
70073;SDS011;57445;51.058;3.698;2022-09-17T14:33:17;3.95;;;1.23;;
70073;SDS011;57445;51.058;3.698;2022-09-17T14:35:58;8.77;;;2.30;;
70073;SDS011;57445;51.058;3.698;2022-09-17T14:38:33;7.28;;;1.55;;
70073;SDS011;57445;51.058;3.698;2022-09-17T14:41:05;5.57;;;1.60;;
70073;SDS011;57445;51.058;3.698;2022-09-17T14:43:47;5.25;;;1.60;;
70073;SDS011;57445;51.058;3.698;2022-09-17T14:46:18;5.13;;;1.27;;
70073;SDS011;57445;51.058;3.698;2022-09-17T14:48:49;6.55;;;1.45;;
70073;SDS011;57445;51.058;3.698;2022-09-17T14:51:27;6.35;;;1.50;;
70073;SDS011;57445;51.058;3.698;2022-09-17T14:54:10;6.45;;;1.45;;
70073;SDS011;57445;51.058;3.698;2022-09-17T14:56:48;7.88;;;2.05;;
70073;SDS011;57445;51.058;3.698;2022-09-17T14:59:35;7.32;;;1.60;;
70073;SDS011;57445;51.058;3.698;2022-09-17T15:05:17;8.90;;;2.13;;
70073;SDS011;57445;51.058;3.698;2022-09-17T15:08:06;8.43;;;1.70;;
70073;SDS011;57445;51.058;3.698;2022-09-17T15:10:50;6.25;;;1.38;;
70073;SDS011;57445;51.058;3.698;2022-09-17T15:13:22;4.72;;;1.50;;
70073;SDS011;57445;51.058;3.698;2022-09-17T15:15:59;5.63;;;1.70;;
70073;SDS011;57445;51.058;3.698;2022-09-17T15:18:34;6.65;;;1.70;;
70073;SDS011;57445;51.058;3.698;2022-09-17T15:21:13;6.07;;;1.42;;
70073;SDS011;57445;51.058;3.698;2022-09-17T15:24:00;6.82;;;2.33;;
70073;SDS011;57445;51.058;3.698;2022-09-17T15:26:36;10.32;;;3.70;;
70073;SDS011;57445;51.058;3.698;2022-09-17T15:29:09;7.72;;;2.47;;
70073;SDS011;57445;51.058;3.698;2022-09-17T15:31:37;8.38;;;3.08;;
70073;SDS011;57445;51.058;3.698;2022-09-17T15:34:10;8.20;;;2.10;;
70073;SDS011;57445;51.058;3.698;2022-09-17T15:39:37;6.82;;;1.80;;
70073;SDS011;57445;51.058;3.698;2022-09-17T15:42:15;7.68;;;1.70;;
70073;SDS011;57445;51.058;3.698;2022-09-17T15:44:45;9.98;;;1.90;;
70073;SDS011;57445;51.058;3.698;2022-09-17T15:50:12;6.93;;;1.90;;
70073;SDS011;57445;51.058;3.698;2022-09-17T15:52:42;9.38;;;2.20;;
70073;SDS011;57445;51.058;3.698;2022-09-17T15:55:29;8.80;;;2.30;;
70073;SDS011;57445;51.058;3.698;2022-09-17T15:58:02;8.43;;;2.00;;
70073;SDS011;57445;51.058;3.698;2022-09-17T16:00:35;7.07;;;2.00;;
70073;SDS011;57445;51.058;3.698;2022-09-17T16:03:22;10.55;;;2.38;;
70073;SDS011;57445;51.058;3.698;2022-09-17T16:06:37;9.32;;;2.38;;
70073;SDS011;57445;51.058;3.698;2022-09-17T16:12:21;8.23;;;2.67;;
70073;SDS011;57445;51.058;3.698;2022-09-17T16:14:50;11.27;;;2.55;;
70073;SDS011;57445;51.058;3.698;2022-09-17T16:17:24;10.43;;;2.83;;